createdAt,value
2019-05-23T00:00:29.403Z,99.90
2019-05-23T00:02:59.034Z,99.90
2019-05-23T00:05:38.634Z,99.90
2019-05-23T00:08:12.471Z,99.90
2019-05-23T00:10:45.774Z,99.90
2019-05-23T00:13:17.380Z,99.90
2019-05-23T00:15:49.692Z,99.90
2019-05-23T00:18:21.295Z,99.90
2019-05-23T00:20:51.980Z,99.90
2019-05-23T00:23:22.277Z,99.90
2019-05-23T00:25:52.728Z,99.90
2019-05-23T00:28:22.477Z,99.90
2019-05-23T00:30:55.878Z,99.90
2019-05-23T00:33:35.171Z,99.90
2019-05-23T00:36:05.266Z,99.90
2019-05-23T00:38:36.390Z,99.90
2019-05-23T00:41:05.545Z,99.90
2019-05-23T00:43:36.325Z,99.90
2019-05-23T00:46:05.921Z,99.90
2019-05-23T00:48:36.425Z,99.90
2019-05-23T00:51:06.573Z,99.90
2019-05-23T00:53:37.215Z,99.90
2019-05-23T00:56:09.223Z,99.90
2019-05-23T00:58:38.799Z,99.90
2019-05-23T01:01:09.096Z,99.90
2019-05-23T01:03:39.041Z,99.90
2019-05-23T01:06:09.262Z,99.90
2019-05-23T01:08:40.534Z,99.90
2019-05-23T01:11:10.680Z,99.90
2019-05-23T01:13:41.441Z,99.90
2019-05-23T01:16:12.111Z,99.90
2019-05-23T01:18:41.557Z,99.90
2019-05-23T01:21:28.918Z,99.90
2019-05-23T01:24:04.405Z,99.90
2019-05-23T01:26:34.479Z,99.90
2019-05-23T01:29:05.024Z,99.90
2019-05-23T01:31:38.088Z,99.90
2019-05-23T01:34:09.266Z,99.90
2019-05-23T01:36:39.630Z,99.90
2019-05-23T01:39:11.595Z,99.90
2019-05-23T01:41:42.471Z,99.90
2019-05-23T01:44:14.130Z,99.90
2019-05-23T01:46:43.960Z,99.90
2019-05-23T01:49:15.465Z,99.90
2019-05-23T01:51:44.652Z,99.90
2019-05-23T01:54:13.904Z,99.90
2019-05-23T01:56:44.693Z,99.90
2019-05-23T01:59:14.026Z,99.90
2019-05-23T02:01:43.249Z,99.90
2019-05-23T02:04:12.407Z,99.90
2019-05-23T02:06:41.684Z,99.90
2019-05-23T02:09:12.233Z,99.90
2019-05-23T02:11:42.215Z,99.90
2019-05-23T02:14:12.193Z,99.90
2019-05-23T02:16:42.526Z,99.90
2019-05-23T02:19:13.797Z,99.90
2019-05-23T02:21:44.671Z,99.90
2019-05-23T02:24:15.161Z,99.90
2019-05-23T02:26:44.459Z,99.90
2019-05-23T02:29:15.487Z,99.90
2019-05-23T02:34:15.519Z,99.90
2019-05-23T02:36:45.705Z,99.90
2019-05-23T02:39:32.961Z,99.90
2019-05-23T02:42:11.863Z,99.90
2019-05-23T02:44:41.140Z,99.90
2019-05-23T02:47:29.401Z,99.90
2019-05-23T02:49:59.885Z,99.90
2019-05-23T02:52:44.392Z,99.90
2019-05-23T02:55:22.156Z,99.90
2019-05-23T02:57:52.696Z,99.90
2019-05-23T03:00:59.881Z,99.90
2019-05-23T03:03:32.415Z,99.90
2019-05-23T03:06:04.646Z,99.90
2019-05-23T03:08:35.593Z,99.90
2019-05-23T03:11:17.372Z,99.90
2019-05-23T03:13:48.196Z,99.90
2019-05-23T03:16:22.036Z,99.90
2019-05-23T03:18:57.951Z,99.90
2019-05-23T03:21:27.361Z,99.90
2019-05-23T03:23:58.030Z,99.90
2019-05-23T03:27:00.166Z,99.90
2019-05-23T03:29:31.520Z,99.90
2019-05-23T03:32:05.967Z,99.90
2019-05-23T03:34:36.748Z,99.90
2019-05-23T03:37:06.998Z,99.90
2019-05-23T03:39:36.445Z,99.90
2019-05-23T03:42:07.320Z,99.90
2019-05-23T03:44:40.719Z,99.90
2019-05-23T03:47:14.638Z,99.90
2019-05-23T03:49:45.412Z,99.90
2019-05-23T03:52:16.545Z,99.90
2019-05-23T03:54:49.261Z,99.90
2019-05-23T03:57:25.295Z,99.90
2019-05-23T03:59:52.467Z,99.90
2019-05-23T04:02:25.827Z,99.90
2019-05-23T04:04:56.677Z,99.90
2019-05-23T04:07:26.398Z,99.90
2019-05-23T04:09:56.293Z,99.90
2019-05-23T04:12:25.729Z,99.90
2019-05-23T04:14:55.439Z,99.90
2019-05-23T04:17:24.683Z,99.90
2019-05-23T04:19:53.859Z,99.90
2019-05-23T04:22:23.906Z,99.90
2019-05-23T04:24:53.401Z,99.90
2019-05-23T04:27:22.710Z,99.90
2019-05-23T04:29:51.995Z,99.90
2019-05-23T04:32:21.650Z,99.90
2019-05-23T04:34:51.187Z,99.90
2019-05-23T04:37:20.525Z,99.90
2019-05-23T04:39:50.337Z,99.90
2019-05-23T04:42:19.771Z,99.90
2019-05-23T04:44:48.923Z,99.90
2019-05-23T04:47:19.831Z,99.90
2019-05-23T04:49:49.442Z,99.90
2019-05-23T04:52:18.559Z,99.90
2019-05-23T04:54:48.000Z,99.90
2019-05-23T04:57:17.955Z,99.90
2019-05-23T04:59:48.165Z,99.90
2019-05-23T05:02:26.302Z,99.90
2019-05-23T05:04:49.733Z,99.90
2019-05-23T05:07:19.122Z,99.90
2019-05-23T05:09:48.422Z,99.90
2019-05-23T05:12:18.381Z,99.90
2019-05-23T05:14:47.726Z,99.90
2019-05-23T05:17:17.565Z,99.90
2019-05-23T05:19:47.096Z,99.90
2019-05-23T05:22:16.535Z,99.90
2019-05-23T05:24:46.008Z,99.90
2019-05-23T05:27:15.192Z,99.90
2019-05-23T05:29:44.485Z,99.90
2019-05-23T05:32:17.358Z,99.90
2019-05-23T05:34:46.467Z,99.90
2019-05-23T05:37:15.608Z,99.90
2019-05-23T05:39:45.614Z,99.90
2019-05-23T05:42:15.030Z,99.90
2019-05-23T05:44:45.182Z,99.90
2019-05-23T05:47:14.444Z,99.90
2019-05-23T05:49:43.556Z,99.90
2019-05-23T05:52:12.732Z,99.90
2019-05-23T05:54:44.784Z,99.90
2019-05-23T05:57:14.203Z,99.90
2019-05-23T05:59:43.333Z,99.90
2019-05-23T06:02:13.982Z,99.90
2019-05-23T06:04:43.748Z,99.90
2019-05-23T06:07:31.883Z,99.90
2019-05-23T06:10:02.552Z,99.90
2019-05-23T06:12:32.373Z,99.90
2019-05-23T06:15:02.861Z,99.90
2019-05-23T06:17:33.607Z,99.90
2019-05-23T06:20:02.874Z,99.90
2019-05-23T06:22:33.742Z,99.90
2019-05-23T06:25:04.794Z,99.90
2019-05-23T06:27:34.578Z,99.90
2019-05-23T06:30:11.941Z,99.90
2019-05-23T06:32:41.528Z,99.90
2019-05-23T06:35:11.010Z,99.90
2019-05-23T06:37:40.654Z,99.90
2019-05-23T06:40:10.621Z,99.90
2019-05-23T06:42:41.330Z,99.90
2019-05-23T06:45:11.291Z,99.90
2019-05-23T06:47:41.363Z,99.90
2019-05-23T06:50:16.162Z,99.90
2019-05-23T06:52:45.391Z,99.90
2019-05-23T06:55:14.759Z,99.90
2019-05-23T06:57:44.353Z,99.90
2019-05-23T07:00:15.020Z,99.90
2019-05-23T07:02:45.065Z,99.90
2019-05-23T07:05:18.148Z,99.90
2019-05-23T07:07:47.675Z,99.90
2019-05-23T07:10:17.467Z,99.90
2019-05-23T07:12:46.650Z,99.90
2019-05-23T07:15:19.926Z,99.90
2019-05-23T07:17:49.023Z,99.90
2019-05-23T07:20:19.062Z,99.90
2019-05-23T07:22:48.491Z,99.90
2019-05-23T07:25:17.799Z,99.90
2019-05-23T07:27:47.292Z,99.90
2019-05-23T07:30:24.937Z,99.90
2019-05-23T07:32:54.424Z,99.90
2019-05-23T07:35:26.222Z,99.90
2019-05-23T07:37:55.770Z,99.90
2019-05-23T07:40:26.855Z,99.90
2019-05-23T07:43:02.934Z,99.90
2019-05-23T07:45:46.834Z,99.90
2019-05-23T07:48:16.307Z,99.90
2019-05-23T07:50:46.008Z,99.90
2019-05-23T08:28:14.592Z,99.90
2019-05-23T08:30:43.774Z,99.90
2019-05-23T08:45:39.229Z,99.90
2019-05-23T08:48:08.558Z,99.90
2019-05-23T08:50:38.093Z,99.90
2019-05-23T08:53:07.779Z,99.90
2019-05-23T08:55:38.299Z,99.90
2019-05-23T08:58:09.367Z,99.90
2019-05-23T09:00:39.815Z,99.50
2019-05-23T09:03:10.859Z,98.40
2019-05-23T09:05:40.510Z,99.00
2019-05-23T09:08:11.301Z,95.70
2019-05-23T09:10:46.767Z,96.00
2019-05-23T09:13:16.402Z,90.90
2019-05-23T09:15:45.489Z,91.70
2019-05-23T09:18:14.978Z,91.80
2019-05-23T09:20:44.708Z,91.80
2019-05-23T09:23:14.622Z,89.00
2019-05-23T09:25:44.046Z,78.10
2019-05-23T09:28:14.308Z,75.40
2019-05-23T09:30:43.664Z,76.90
2019-05-23T09:33:24.248Z,68.20
2019-05-23T09:36:02.180Z,70.00
2019-05-23T09:38:33.553Z,66.90
2019-05-23T09:41:02.752Z,69.00
2019-05-23T09:43:32.040Z,70.00
2019-05-23T09:46:01.273Z,69.00
2019-05-23T09:48:31.085Z,61.40
2019-05-23T09:51:00.258Z,63.40
2019-05-23T09:53:29.505Z,61.00
2019-05-23T09:55:58.691Z,61.70
2019-05-23T09:58:28.021Z,63.10
2019-05-23T10:00:57.937Z,62.20
2019-05-23T10:03:27.539Z,60.70
2019-05-23T10:05:57.153Z,57.80
2019-05-23T10:08:26.420Z,58.00
2019-05-23T10:10:55.608Z,59.60
2019-05-23T10:13:38.492Z,58.70
2019-05-23T10:16:05.242Z,58.20
2019-05-23T10:18:37.321Z,58.10
2019-05-23T10:21:07.402Z,54.60
2019-05-23T10:23:36.637Z,55.00
2019-05-23T10:26:09.306Z,57.80
2019-05-23T10:28:38.716Z,55.40
2019-05-23T10:31:29.454Z,53.70
2019-05-23T10:34:05.486Z,51.70
2019-05-23T10:36:34.785Z,53.90
2019-05-23T10:39:06.041Z,53.00
2019-05-23T10:41:38.455Z,55.40
2019-05-23T10:44:07.749Z,54.80
2019-05-23T10:46:38.079Z,55.80
2019-05-23T10:49:10.495Z,52.20
2019-05-23T10:51:39.923Z,54.10
2019-05-23T11:36:59.482Z,52.70
2019-05-23T11:39:29.765Z,53.10
2019-05-23T11:41:58.827Z,53.60
2019-05-23T11:44:27.995Z,52.60
2019-05-23T11:47:19.573Z,51.10
2019-05-23T11:49:49.180Z,50.80
2019-05-23T11:52:18.771Z,52.70
2019-05-23T11:54:47.871Z,51.60
2019-05-23T11:57:20.467Z,51.60
2019-05-23T11:59:54.470Z,51.70
2019-05-23T12:02:32.124Z,50.20
2019-05-23T12:05:04.933Z,50.20
2019-05-23T12:07:36.581Z,49.50
2019-05-23T12:10:07.677Z,51.00
2019-05-23T12:12:37.290Z,50.90
2019-05-23T12:15:10.922Z,52.60
2019-05-23T12:17:40.509Z,52.20
2019-05-23T12:20:10.849Z,52.80
2019-05-23T12:22:41.050Z,54.40
2019-05-23T12:25:21.841Z,53.30
2019-05-23T12:53:02.430Z,55.10
2019-05-23T12:55:31.678Z,55.80
2019-05-23T12:58:00.845Z,54.60
2019-05-23T13:00:39.326Z,53.50
2019-05-23T13:03:08.664Z,52.40
2019-05-23T13:05:39.039Z,54.60
2019-05-23T13:08:09.177Z,54.80
2019-05-23T13:10:38.683Z,54.80
2019-05-23T13:13:08.054Z,50.50
2019-05-23T13:15:38.253Z,48.10
2019-05-23T13:18:07.673Z,45.30
2019-05-23T13:20:37.821Z,45.70
2019-05-23T13:23:07.880Z,43.30
2019-05-23T13:25:37.907Z,46.30
2019-05-23T13:28:07.186Z,49.60
2019-05-23T13:30:36.567Z,49.20
2019-05-23T13:33:05.815Z,48.70
2019-05-23T13:35:35.480Z,47.00
2019-05-23T13:38:04.678Z,48.40
2019-05-23T13:40:34.179Z,48.30
2019-05-23T13:43:09.179Z,49.00
2019-05-23T13:45:38.828Z,47.40
2019-05-23T13:48:08.093Z,47.70
2019-05-23T13:50:37.388Z,46.30
2019-05-23T13:53:10.423Z,46.00
2019-05-23T13:55:39.986Z,44.60
2019-05-23T13:58:09.335Z,43.50
2019-05-23T14:00:39.130Z,43.40
2019-05-23T14:03:09.092Z,45.50
2019-05-23T14:05:38.576Z,44.20
2019-05-23T14:08:12.811Z,44.20
2019-05-23T14:10:40.398Z,44.30
2019-05-23T14:13:09.542Z,46.90
2019-05-23T14:15:41.939Z,48.30
2019-05-23T14:18:12.656Z,47.90
2019-05-23T14:20:42.412Z,47.00
2019-05-23T14:23:21.243Z,49.30
2019-05-23T14:25:50.721Z,48.90
2019-05-23T14:28:23.963Z,45.90
2019-05-23T14:31:04.671Z,46.80
2019-05-23T14:33:51.784Z,47.80
2019-05-23T14:36:31.086Z,48.50
2019-05-23T14:38:59.025Z,47.90
2019-05-23T14:41:44.228Z,47.30
2019-05-23T14:44:02.831Z,46.40
2019-05-23T14:46:36.833Z,46.80
2019-05-23T14:49:11.384Z,46.30
2019-05-23T14:52:04.429Z,45.70
2019-05-23T14:55:03.012Z,47.80
2019-05-23T15:10:44.428Z,50.60
2019-05-23T15:14:19.831Z,50.50
2019-05-23T15:21:01.053Z,49.90
2019-05-23T15:24:43.664Z,49.70
2019-05-23T15:27:35.242Z,51.70
2019-05-23T15:30:11.400Z,52.00
2019-05-23T15:36:28.414Z,50.20
2019-05-23T15:42:34.748Z,52.10
2019-05-23T15:51:44.533Z,54.10
2019-05-23T15:57:29.586Z,54.20
2019-05-23T16:01:29.505Z,54.30
2019-05-23T16:04:26.991Z,53.90
2019-05-23T16:07:28.124Z,53.40
2019-05-23T16:09:55.262Z,53.90
2019-05-23T16:12:36.720Z,53.30
2019-05-23T16:15:09.374Z,54.30
2019-05-23T16:17:38.599Z,54.30
2019-05-23T16:20:23.556Z,54.40
2019-05-23T16:22:52.942Z,55.00
2019-05-23T16:25:22.530Z,54.90
2019-05-23T16:27:52.294Z,54.50
2019-05-23T16:30:21.554Z,55.00
2019-05-23T16:32:50.713Z,55.30
2019-05-23T16:35:20.114Z,55.70
2019-05-23T16:37:52.557Z,55.90
2019-05-23T16:40:21.810Z,56.50
2019-05-23T16:42:51.033Z,56.20
2019-05-23T16:45:20.507Z,55.90
2019-05-23T16:47:49.850Z,56.20
2019-05-23T16:50:55.392Z,56.90
2019-05-23T16:53:26.317Z,56.40
2019-05-23T16:56:01.661Z,56.80
2019-05-23T16:58:42.774Z,56.70
2019-05-23T17:01:34.444Z,56.70
2019-05-23T17:04:16.444Z,56.00
2019-05-23T17:06:57.883Z,56.70
2019-05-23T17:10:05.908Z,57.00
2019-05-23T17:12:35.114Z,56.50
2019-05-23T17:15:12.406Z,56.90
2019-05-23T17:18:02.815Z,57.80
2019-05-23T17:20:51.088Z,58.50
2019-05-23T17:23:54.514Z,58.40
2019-05-23T17:26:39.690Z,58.50
2019-05-23T17:29:16.308Z,58.30
2019-05-23T17:31:49.303Z,57.30
2019-05-23T17:34:18.568Z,57.50
2019-05-23T17:36:47.865Z,56.80
2019-05-23T17:39:19.108Z,56.80
2019-05-23T17:41:48.231Z,56.70
2019-05-23T17:44:17.473Z,56.70
2019-05-23T17:46:46.632Z,57.50
2019-05-23T17:49:16.417Z,57.70
2019-05-23T17:51:45.826Z,58.20
2019-05-23T17:54:15.364Z,58.20
2019-05-23T17:56:44.324Z,58.70
2019-05-23T17:59:13.661Z,58.60
2019-05-23T18:01:43.879Z,57.80
2019-05-23T18:04:13.971Z,58.10
2019-05-23T18:06:43.599Z,57.60
2019-05-23T18:09:13.461Z,57.40
2019-05-23T18:11:42.885Z,57.50
2019-05-23T18:14:12.241Z,57.60
2019-05-23T18:16:42.879Z,58.00
2019-05-23T18:19:13.386Z,58.50
2019-05-23T18:21:42.910Z,58.50
2019-05-23T18:24:13.330Z,58.60
2019-05-23T18:26:48.280Z,59.50
2019-05-23T18:29:17.547Z,59.20
2019-05-23T18:31:46.692Z,60.10
2019-05-23T18:34:16.658Z,59.30
2019-05-23T18:36:46.300Z,59.30
2019-05-23T18:39:17.243Z,59.00
2019-05-23T18:41:46.686Z,60.00
2019-05-23T18:44:16.990Z,62.30
2019-05-23T18:46:50.621Z,61.20
2019-05-23T18:49:24.903Z,61.30
2019-05-23T18:52:04.719Z,61.10
2019-05-23T18:54:46.295Z,62.10
2019-05-23T18:57:17.058Z,62.90
2019-05-23T18:59:46.138Z,62.60
2019-05-23T19:02:15.518Z,62.30
2019-05-23T19:04:45.075Z,62.80
2019-05-23T19:07:14.324Z,63.80
2019-05-23T19:09:43.859Z,63.60
2019-05-23T19:12:15.162Z,64.40
2019-05-23T19:14:44.294Z,64.90
2019-05-23T19:17:13.506Z,65.40
2019-05-23T19:19:43.369Z,66.30
2019-05-23T19:22:15.950Z,67.10
2019-05-23T19:24:45.573Z,66.80
2019-05-23T19:27:16.518Z,67.60
2019-05-23T19:29:46.015Z,68.70
2019-05-23T19:32:15.916Z,69.40
2019-05-23T19:34:45.417Z,70.30
2019-05-23T19:37:14.835Z,71.50
2019-05-23T19:39:44.652Z,71.40
2019-05-23T19:42:14.604Z,72.80
2019-05-23T19:44:43.687Z,73.70
2019-05-23T19:47:14.006Z,74.00
2019-05-23T19:49:43.154Z,75.00
2019-05-23T19:52:13.026Z,75.60
2019-05-23T19:54:42.708Z,76.70
2019-05-23T19:57:11.946Z,77.70
2019-05-23T19:59:41.579Z,79.60
2019-05-23T20:02:29.159Z,80.30
2019-05-23T20:05:04.042Z,81.30
2019-05-23T20:07:33.236Z,82.30
2019-05-23T20:10:03.198Z,83.30
2019-05-23T20:12:32.804Z,85.40
2019-05-23T20:15:01.890Z,86.60
2019-05-23T20:17:35.231Z,87.80
2019-05-23T20:20:04.672Z,88.40
2019-05-23T20:22:34.190Z,90.00
2019-05-23T20:25:06.882Z,90.70
2019-05-23T20:27:36.355Z,91.20
2019-05-23T20:30:07.723Z,91.80
2019-05-23T20:32:45.954Z,92.30
2019-05-23T20:35:15.725Z,93.00
2019-05-23T20:37:45.000Z,93.80
2019-05-23T20:40:14.542Z,94.50
2019-05-23T20:42:44.178Z,94.70
2019-05-23T20:45:13.546Z,95.40
2019-05-23T20:47:42.853Z,96.10
2019-05-23T20:50:12.052Z,96.90
2019-05-23T20:52:41.141Z,97.60
2019-05-23T20:55:10.879Z,98.10
2019-05-23T20:57:40.099Z,98.90
2019-05-23T21:00:11.703Z,99.40
2019-05-23T21:02:41.059Z,99.90
2019-05-23T21:05:16.705Z,99.90
2019-05-23T21:07:46.545Z,99.90
2019-05-23T21:10:30.902Z,99.90
2019-05-23T21:13:00.073Z,99.90
2019-05-23T21:15:32.422Z,99.90
2019-05-23T21:18:03.673Z,99.90
2019-05-23T21:20:37.197Z,99.90
2019-05-23T21:23:06.505Z,99.90
2019-05-23T21:25:36.988Z,99.90
2019-05-23T21:28:06.273Z,99.90
2019-05-23T21:30:35.688Z,99.90
2019-05-23T21:33:05.206Z,99.90
2019-05-23T21:35:34.441Z,99.90
2019-05-23T21:38:03.715Z,99.90
2019-05-23T21:40:45.515Z,99.90
2019-05-23T21:43:14.785Z,99.90
2019-05-23T21:45:44.520Z,99.90
2019-05-23T21:48:15.478Z,99.90
2019-05-23T21:50:45.090Z,99.90
2019-05-23T21:53:14.643Z,99.90
2019-05-23T21:55:44.760Z,99.90
2019-05-23T21:58:15.160Z,99.90
2019-05-23T22:01:29.043Z,99.90
2019-05-23T22:04:16.690Z,99.90
2019-05-23T22:06:50.376Z,99.90
2019-05-23T22:09:20.132Z,99.90
2019-05-23T22:11:50.063Z,99.90
2019-05-23T22:14:20.192Z,99.90
2019-05-23T22:16:49.844Z,99.90
2019-05-23T22:19:20.905Z,99.90
2019-05-23T22:21:50.158Z,99.90
2019-05-23T22:24:20.085Z,99.90
2019-05-23T22:26:52.385Z,99.90
2019-05-23T22:29:21.949Z,99.90
2019-05-23T22:31:51.052Z,99.90
2019-05-23T22:34:34.180Z,99.90
2019-05-23T22:37:05.352Z,99.90
2019-05-23T22:39:34.518Z,99.90
2019-05-23T22:42:05.928Z,99.90
2019-05-23T22:44:36.951Z,99.90
2019-05-23T22:47:06.348Z,99.90
2019-05-23T22:49:35.794Z,99.90
2019-05-23T22:52:05.535Z,99.90
2019-05-23T22:54:34.754Z,99.90
2019-05-23T22:57:05.018Z,99.90
2019-05-23T22:59:34.219Z,99.90
2019-05-23T23:02:05.008Z,99.90
2019-05-23T23:04:34.112Z,99.90
2019-05-23T23:07:03.717Z,99.90
2019-05-23T23:09:32.812Z,99.90
2019-05-23T23:12:02.396Z,99.90
2019-05-23T23:14:31.809Z,99.90
2019-05-23T23:17:02.234Z,99.90
2019-05-23T23:19:38.211Z,99.90
2019-05-23T23:22:11.160Z,99.90
2019-05-23T23:24:40.431Z,99.90
2019-05-23T23:27:09.745Z,99.90
2019-05-23T23:29:38.892Z,99.90
2019-05-23T23:32:08.743Z,99.90
2019-05-23T23:34:38.002Z,99.90
2019-05-23T23:37:07.267Z,99.90
2019-05-23T23:39:38.035Z,99.90
2019-05-23T23:43:03.432Z,99.90
2019-05-23T23:45:50.970Z,99.90
2019-05-23T23:48:41.514Z,99.90
2019-05-23T23:51:28.252Z,99.90
2019-05-23T23:54:15.131Z,99.90
2019-05-23T23:57:02.748Z,99.90
2019-05-23T23:59:30.976Z,99.90
